createdAt,value
2022-10-21T00:00:17.344Z,1005.14
2022-10-21T00:01:17.400Z,1005.26
2022-10-21T00:02:17.337Z,1005.30
2022-10-21T00:03:17.342Z,1005.17
2022-10-21T00:04:17.352Z,1005.11
2022-10-21T00:05:17.336Z,1005.06
2022-10-21T00:06:17.330Z,1005.11
2022-10-21T00:07:17.318Z,1005.11
2022-10-21T00:08:17.328Z,1005.10
2022-10-21T00:09:17.324Z,1005.07
2022-10-21T00:10:17.321Z,1005.11
2022-10-21T00:11:17.323Z,1005.15
2022-10-21T00:12:17.312Z,1005.15
2022-10-21T00:13:17.332Z,1005.19
2022-10-21T00:14:17.310Z,1005.20
2022-10-21T00:15:17.314Z,1005.17
2022-10-21T00:16:17.310Z,1005.17
2022-10-21T00:17:17.309Z,1005.16
2022-10-21T00:18:17.307Z,1005.15
2022-10-21T00:19:17.301Z,1005.19
2022-10-21T00:20:17.365Z,1005.22
2022-10-21T00:21:17.296Z,1005.18
2022-10-21T00:22:17.299Z,1005.18
2022-10-21T00:23:17.288Z,1005.16
2022-10-21T00:24:17.282Z,1005.10
2022-10-21T00:25:17.282Z,1005.13
2022-10-21T00:26:17.290Z,1005.11
2022-10-21T00:27:17.282Z,1005.11
2022-10-21T00:28:17.280Z,1005.09
2022-10-21T00:29:17.351Z,1005.08
2022-10-21T00:30:17.274Z,1005.10
2022-10-21T00:31:17.273Z,1005.03
2022-10-21T00:32:17.283Z,1004.97
2022-10-21T00:33:17.276Z,1005.02
2022-10-21T00:34:17.268Z,1004.97
2022-10-21T00:35:17.266Z,1004.93
2022-10-21T00:36:17.266Z,1004.91
2022-10-21T00:37:17.260Z,1004.89
2022-10-21T00:38:17.275Z,1004.96
2022-10-21T00:39:17.253Z,1004.95
2022-10-21T00:40:17.256Z,1004.92
2022-10-21T00:41:17.252Z,1004.89
2022-10-21T00:42:17.242Z,1004.90
2022-10-21T00:43:17.253Z,1004.91
2022-10-21T00:44:17.240Z,1004.91
2022-10-21T00:45:17.261Z,1005.02
2022-10-21T00:46:17.243Z,1005.02
2022-10-21T00:47:17.229Z,1005.04
2022-10-21T00:48:17.238Z,1005.02
2022-10-21T00:49:17.230Z,1004.99
2022-10-21T00:50:17.238Z,1004.95
2022-10-21T00:51:17.226Z,1004.87
2022-10-21T00:52:17.230Z,1004.86
2022-10-21T00:53:17.223Z,1004.87
2022-10-21T00:54:17.226Z,1004.85
2022-10-21T00:55:17.214Z,1004.86
2022-10-21T00:56:17.215Z,1004.89
2022-10-21T00:57:17.220Z,1004.80
2022-10-21T00:58:17.226Z,1004.77
2022-10-21T00:59:17.206Z,1004.78
2022-10-21T01:00:17.209Z,1004.73
2022-10-21T01:01:20.605Z,1004.76
2022-10-21T01:02:17.203Z,1004.72
2022-10-21T01:03:17.202Z,1004.69
2022-10-21T01:04:17.195Z,1004.65
2022-10-21T01:05:17.195Z,1004.62
2022-10-21T01:06:17.203Z,1004.61
2022-10-21T01:07:17.189Z,1004.60
2022-10-21T01:08:17.195Z,1004.58
2022-10-21T01:09:17.251Z,1004.53
2022-10-21T01:10:17.190Z,1004.54
2022-10-21T01:11:17.190Z,1004.51
2022-10-21T01:12:17.175Z,1004.46
2022-10-21T01:13:17.186Z,1004.52
2022-10-21T01:14:17.175Z,1004.49
2022-10-21T01:15:17.176Z,1004.53
2022-10-21T01:16:17.172Z,1004.50
2022-10-21T01:17:26.299Z,1004.46
2022-10-21T01:18:17.167Z,1004.51
2022-10-21T01:19:17.172Z,1004.52
2022-10-21T01:20:17.171Z,1004.53
2022-10-21T01:21:17.169Z,1004.55
2022-10-21T01:22:17.165Z,1004.53
2022-10-21T01:23:17.151Z,1004.53
2022-10-21T01:24:17.162Z,1004.48
2022-10-21T01:25:17.148Z,1004.50
2022-10-21T01:26:17.151Z,1004.49
2022-10-21T01:27:17.149Z,1004.49
2022-10-21T01:28:17.143Z,1004.47
2022-10-21T01:29:17.156Z,1004.47
2022-10-21T01:30:17.147Z,1004.44
2022-10-21T01:31:17.141Z,1004.45
2022-10-21T01:32:17.139Z,1004.40
2022-10-21T01:33:17.160Z,1004.39
2022-10-21T01:34:17.130Z,1004.34
2022-10-21T01:35:17.129Z,1004.37
2022-10-21T01:36:17.136Z,1004.36
2022-10-21T01:37:17.118Z,1004.37
2022-10-21T01:38:17.126Z,1004.38
2022-10-21T01:39:17.127Z,1004.39
2022-10-21T01:40:17.125Z,1004.38
2022-10-21T01:41:17.121Z,1004.38
2022-10-21T01:42:17.123Z,1004.38
2022-10-21T01:43:17.114Z,1004.34
2022-10-21T01:44:17.109Z,1004.33
2022-10-21T01:45:17.112Z,1004.32
2022-10-21T01:46:17.113Z,1004.30
2022-10-21T01:47:17.103Z,1004.29
2022-10-21T01:48:17.103Z,1004.29
2022-10-21T01:49:17.115Z,1004.32
2022-10-21T01:50:17.102Z,1004.27
2022-10-21T01:51:17.155Z,1004.32
2022-10-21T01:52:17.091Z,1004.31
2022-10-21T01:53:17.094Z,1004.30
2022-10-21T01:54:17.092Z,1004.27
2022-10-21T01:55:17.079Z,1004.30
2022-10-21T01:56:17.089Z,1004.29
2022-10-21T01:57:17.089Z,1004.27
2022-10-21T01:58:17.079Z,1004.24
2022-10-21T01:59:17.077Z,1004.26
2022-10-21T02:00:17.149Z,1004.27
2022-10-21T02:01:17.178Z,1004.19
2022-10-21T02:02:17.065Z,1004.16
2022-10-21T02:03:17.067Z,1004.13
2022-10-21T02:04:17.073Z,1004.11
2022-10-21T02:05:17.082Z,1004.10
2022-10-21T02:06:17.062Z,1004.09
2022-10-21T02:07:17.053Z,1004.03
2022-10-21T02:08:17.061Z,1004.01
2022-10-21T02:09:17.053Z,1004.07
2022-10-21T02:10:17.054Z,1004.02
2022-10-21T02:11:17.051Z,1003.99
2022-10-21T02:12:17.049Z,1003.94
2022-10-21T02:13:17.056Z,1003.87
2022-10-21T02:14:17.037Z,1003.88
2022-10-21T02:15:17.046Z,1003.87
2022-10-21T02:16:17.043Z,1003.88
2022-10-21T02:17:17.031Z,1003.82
2022-10-21T02:18:17.034Z,1003.80
2022-10-21T02:19:17.177Z,1003.82
2022-10-21T02:20:17.032Z,1003.85
2022-10-21T02:21:17.054Z,1003.88
2022-10-21T02:22:17.027Z,1003.90
2022-10-21T02:23:17.018Z,1003.90
2022-10-21T02:24:17.026Z,1003.94
2022-10-21T02:25:17.014Z,1003.91
2022-10-21T02:26:17.015Z,1003.91
2022-10-21T02:27:17.016Z,1003.91
2022-10-21T02:28:17.012Z,1003.94
2022-10-21T02:29:17.011Z,1003.92
2022-10-21T02:30:17.008Z,1003.91
2022-10-21T02:31:17.005Z,1003.89
2022-10-21T02:32:16.996Z,1003.91
2022-10-21T02:33:16.996Z,1003.94
2022-10-21T02:34:17.005Z,1003.92
2022-10-21T02:35:16.993Z,1003.92
2022-10-21T02:36:16.998Z,1003.89
2022-10-21T02:37:17.008Z,1003.90
2022-10-21T02:38:16.986Z,1003.91
2022-10-21T02:39:16.990Z,1003.89
2022-10-21T02:40:16.986Z,1003.86
2022-10-21T02:41:16.985Z,1003.89
2022-10-21T02:42:16.985Z,1003.87
2022-10-21T02:43:16.973Z,1003.84
2022-10-21T02:44:16.971Z,1003.84
2022-10-21T02:45:16.979Z,1003.85
2022-10-21T02:46:16.978Z,1003.81
2022-10-21T02:47:16.977Z,1003.81
2022-10-21T02:48:16.970Z,1003.82
2022-10-21T02:49:16.970Z,1003.84
2022-10-21T02:50:16.958Z,1003.78
2022-10-21T02:51:16.952Z,1003.79
2022-10-21T02:52:16.954Z,1003.80
2022-10-21T02:53:16.975Z,1003.82
2022-10-21T02:54:16.954Z,1003.79
2022-10-21T02:55:16.944Z,1003.82
2022-10-21T02:56:17.023Z,1003.78
2022-10-21T02:57:16.948Z,1003.74
2022-10-21T02:58:16.942Z,1003.74
2022-10-21T02:59:16.937Z,1003.74
2022-10-21T03:00:16.947Z,1003.68
2022-10-21T03:01:16.974Z,1003.64
2022-10-21T03:02:16.946Z,1003.64
2022-10-21T03:03:16.933Z,1003.62
2022-10-21T03:04:16.933Z,1003.64
2022-10-21T03:05:16.944Z,1003.62
2022-10-21T03:06:16.926Z,1003.65
2022-10-21T03:07:16.941Z,1003.63
2022-10-21T03:08:16.918Z,1003.68
2022-10-21T03:09:16.942Z,1003.72
2022-10-21T03:10:16.921Z,1003.64
2022-10-21T03:11:16.912Z,1003.63
2022-10-21T03:12:16.912Z,1003.61
2022-10-21T03:13:16.906Z,1003.58
2022-10-21T03:14:16.909Z,1003.54
2022-10-21T03:15:16.901Z,1003.57
2022-10-21T03:17:20.408Z,1003.55
2022-10-21T03:18:16.904Z,1003.52
2022-10-21T03:19:16.896Z,1003.52
2022-10-21T03:20:16.894Z,1003.51
2022-10-21T03:21:16.894Z,1003.50
2022-10-21T03:22:16.887Z,1003.49
2022-10-21T03:23:16.887Z,1003.53
2022-10-21T03:24:27.929Z,1003.59
2022-10-21T03:25:16.908Z,1003.56
2022-10-21T03:26:16.884Z,1003.56
2022-10-21T03:27:16.874Z,1003.60
2022-10-21T03:28:16.883Z,1003.62
2022-10-21T03:29:16.874Z,1003.57
2022-10-21T03:30:16.889Z,1003.54
2022-10-21T03:31:16.866Z,1003.53
2022-10-21T03:32:16.872Z,1003.54
2022-10-21T03:33:16.865Z,1003.51
2022-10-21T03:34:16.859Z,1003.56
2022-10-21T03:35:16.857Z,1003.52
2022-10-21T03:36:16.860Z,1003.54
2022-10-21T03:37:16.862Z,1003.58
2022-10-21T03:38:16.862Z,1003.56
2022-10-21T03:39:16.848Z,1003.53
2022-10-21T03:40:16.851Z,1003.60
2022-10-21T03:41:16.872Z,1003.62
2022-10-21T03:42:16.857Z,1003.64
2022-10-21T03:43:16.841Z,1003.61
2022-10-21T03:44:16.833Z,1003.62
2022-10-21T03:45:16.833Z,1003.65
2022-10-21T03:46:16.843Z,1003.70
2022-10-21T03:47:16.834Z,1003.73
2022-10-21T03:48:16.827Z,1003.70
2022-10-21T03:49:20.970Z,1003.72
2022-10-21T03:50:18.399Z,1003.71
2022-10-21T03:51:16.817Z,1003.71
2022-10-21T03:52:16.831Z,1003.67
2022-10-21T03:53:37.915Z,1003.62
2022-10-21T03:54:16.830Z,1003.69
2022-10-21T03:55:16.806Z,1003.72
2022-10-21T03:56:16.818Z,1003.68
2022-10-21T03:57:16.827Z,1003.64
2022-10-21T03:58:16.801Z,1003.67
2022-10-21T03:59:16.808Z,1003.69
2022-10-21T04:00:16.809Z,1003.73
2022-10-21T04:01:16.867Z,1003.76
2022-10-21T04:02:16.799Z,1003.69
2022-10-21T04:03:16.802Z,1003.73
2022-10-21T04:04:16.790Z,1003.75
2022-10-21T04:05:16.795Z,1003.73
2022-10-21T04:06:16.787Z,1003.72
2022-10-21T04:07:16.787Z,1003.71
2022-10-21T04:08:16.786Z,1003.67
2022-10-21T04:09:16.845Z,1003.74
2022-10-21T04:10:16.789Z,1003.78
2022-10-21T04:11:16.781Z,1003.78
2022-10-21T04:12:16.769Z,1003.79
2022-10-21T04:13:16.794Z,1003.80
2022-10-21T04:14:16.777Z,1003.78
2022-10-21T04:15:16.765Z,1003.76
2022-10-21T04:16:16.774Z,1003.76
2022-10-21T04:17:16.767Z,1003.78
2022-10-21T04:18:16.756Z,1003.77
2022-10-21T04:19:16.753Z,1003.80
2022-10-21T04:20:16.765Z,1003.80
2022-10-21T04:21:16.790Z,1003.76
2022-10-21T04:22:16.763Z,1003.73
2022-10-21T04:23:16.744Z,1003.75
2022-10-21T04:24:16.757Z,1003.78
2022-10-21T04:25:16.744Z,1003.78
2022-10-21T04:26:16.751Z,1003.78
2022-10-21T04:27:16.800Z,1003.76
2022-10-21T04:28:16.739Z,1003.70
2022-10-21T04:29:16.754Z,1003.73
2022-10-21T04:30:16.731Z,1003.67
2022-10-21T04:31:16.727Z,1003.67
2022-10-21T04:32:16.736Z,1003.69
2022-10-21T04:33:16.737Z,1003.72
2022-10-21T04:34:16.733Z,1003.64
2022-10-21T04:35:16.729Z,1003.62
2022-10-21T04:36:16.728Z,1003.63
2022-10-21T04:37:16.719Z,1003.66
2022-10-21T04:38:16.713Z,1003.67
2022-10-21T04:39:16.713Z,1003.70
2022-10-21T04:40:16.706Z,1003.73
2022-10-21T04:41:16.715Z,1003.67
2022-10-21T04:42:16.772Z,1003.67
2022-10-21T04:43:16.706Z,1003.62
2022-10-21T04:44:16.702Z,1003.63
2022-10-21T04:45:16.728Z,1003.65
2022-10-21T04:46:16.698Z,1003.65
2022-10-21T04:47:16.704Z,1003.63
2022-10-21T04:48:16.690Z,1003.65
2022-10-21T04:49:16.701Z,1003.63
2022-10-21T04:50:16.686Z,1003.63
2022-10-21T04:51:16.681Z,1003.62
2022-10-21T04:52:16.681Z,1003.59
2022-10-21T04:53:16.678Z,1003.62
2022-10-21T04:54:16.691Z,1003.65
2022-10-21T04:55:16.683Z,1003.65
2022-10-21T04:56:16.682Z,1003.61
2022-10-21T04:57:16.668Z,1003.54
2022-10-21T04:58:20.907Z,1003.56
2022-10-21T04:59:16.670Z,1003.60
2022-10-21T05:00:16.669Z,1003.57
2022-10-21T05:01:16.716Z,1003.59
2022-10-21T05:02:18.503Z,1003.52
2022-10-21T05:03:16.653Z,1003.51
2022-10-21T05:04:16.662Z,1003.51
2022-10-21T05:05:16.656Z,1003.49
2022-10-21T05:06:16.655Z,1003.52
2022-10-21T05:07:16.661Z,1003.48
2022-10-21T05:08:16.668Z,1003.49
2022-10-21T05:09:16.702Z,1003.50
2022-10-21T05:10:16.646Z,1003.44
2022-10-21T05:11:16.643Z,1003.39
2022-10-21T05:12:16.633Z,1003.33
2022-10-21T05:13:16.644Z,1003.35
2022-10-21T05:14:20.027Z,1003.30
2022-10-21T05:15:16.646Z,1003.32
2022-10-21T05:16:16.628Z,1003.31
2022-10-21T05:17:16.650Z,1003.29
2022-10-21T05:18:16.622Z,1003.29
2022-10-21T05:19:16.634Z,1003.28
2022-10-21T05:20:16.629Z,1003.26
2022-10-21T05:21:16.619Z,1003.28
2022-10-21T05:22:16.618Z,1003.26
2022-10-21T05:23:16.609Z,1003.28
2022-10-21T05:24:16.614Z,1003.24
2022-10-21T05:25:16.617Z,1003.24
2022-10-21T05:26:16.619Z,1003.23
2022-10-21T05:27:16.608Z,1003.21
2022-10-21T05:28:16.599Z,1003.20
2022-10-21T05:29:16.598Z,1003.15
2022-10-21T05:30:16.596Z,1003.12
2022-10-21T05:31:16.593Z,1003.12
2022-10-21T05:32:16.587Z,1003.05
2022-10-21T05:33:16.621Z,1003.06
2022-10-21T05:34:16.590Z,1003.06
2022-10-21T05:35:16.587Z,1003.06
2022-10-21T05:36:17.599Z,1003.07
2022-10-21T05:37:16.601Z,1003.10
2022-10-21T05:38:16.584Z,1003.06
2022-10-21T05:39:16.600Z,1003.03
2022-10-21T05:40:16.581Z,1003.06
2022-10-21T05:41:16.574Z,1003.00
2022-10-21T05:42:16.578Z,1003.00
2022-10-21T05:43:16.581Z,1002.99
2022-10-21T05:44:16.578Z,1003.02
2022-10-21T05:45:16.582Z,1003.07
2022-10-21T05:46:16.569Z,1003.02
2022-10-21T05:47:16.571Z,1003.05
2022-10-21T05:48:17.973Z,1003.01
2022-10-21T05:49:16.602Z,1003.00
2022-10-21T05:50:16.555Z,1002.98
2022-10-21T05:51:16.572Z,1002.99
2022-10-21T05:52:16.553Z,1002.98
2022-10-21T05:53:16.566Z,1002.95
2022-10-21T05:54:16.566Z,1002.92
2022-10-21T05:55:16.556Z,1002.92
2022-10-21T05:56:16.553Z,1002.96
2022-10-21T05:57:16.545Z,1002.95
2022-10-21T05:58:16.543Z,1002.95
2022-10-21T05:59:16.555Z,1002.90
2022-10-21T06:00:16.548Z,1002.88
2022-10-21T06:01:16.613Z,1002.86
2022-10-21T06:02:16.544Z,1002.87
2022-10-21T06:03:16.537Z,1002.83
2022-10-21T06:04:16.536Z,1002.82
2022-10-21T06:05:16.567Z,1002.81
2022-10-21T06:06:16.544Z,1002.80
2022-10-21T06:07:16.543Z,1002.82
2022-10-21T06:08:16.528Z,1002.81
2022-10-21T06:09:16.603Z,1002.76
2022-10-21T06:10:16.529Z,1002.71
2022-10-21T06:11:16.532Z,1002.71
2022-10-21T06:12:16.529Z,1002.71
2022-10-21T06:13:16.548Z,1002.70
2022-10-21T06:14:16.531Z,1002.68
2022-10-21T06:15:16.537Z,1002.71
2022-10-21T06:16:16.525Z,1002.71
2022-10-21T06:17:16.529Z,1002.73
2022-10-21T06:18:16.514Z,1002.73
2022-10-21T06:19:16.518Z,1002.73
2022-10-21T06:20:16.515Z,1002.69
2022-10-21T06:21:16.535Z,1002.68
2022-10-21T06:22:16.512Z,1002.69
2022-10-21T06:23:16.514Z,1002.67
2022-10-21T06:24:16.503Z,1002.69
2022-10-21T06:26:16.514Z,1002.68
2022-10-21T06:27:16.510Z,1002.75
2022-10-21T06:28:16.499Z,1002.72
2022-10-21T06:29:16.503Z,1002.70
2022-10-21T06:30:16.507Z,1002.72
2022-10-21T06:31:16.494Z,1002.82
2022-10-21T06:32:16.496Z,1002.82
2022-10-21T06:33:16.491Z,1002.81
2022-10-21T06:35:16.503Z,1002.80
2022-10-21T06:36:16.496Z,1002.81
2022-10-21T06:37:16.506Z,1002.84
2022-10-21T06:38:16.485Z,1002.82
2022-10-21T06:39:16.489Z,1002.80
2022-10-21T06:40:16.479Z,1002.82
2022-10-21T06:41:16.489Z,1002.80
2022-10-21T06:42:16.486Z,1002.80
2022-10-21T06:43:16.588Z,1002.86
2022-10-21T06:44:16.475Z,1002.84
2022-10-21T06:45:16.472Z,1002.81
2022-10-21T06:46:16.475Z,1002.86
2022-10-21T06:47:16.477Z,1002.91
2022-10-21T06:48:16.473Z,1002.92
2022-10-21T06:49:16.479Z,1002.92
2022-10-21T06:50:16.471Z,1002.98
2022-10-21T06:51:16.470Z,1002.97
2022-10-21T06:52:16.498Z,1002.99
2022-10-21T06:53:16.486Z,1003.04
2022-10-21T06:54:16.473Z,1003.01
2022-10-21T06:55:16.455Z,1003.03
2022-10-21T06:56:16.478Z,1003.08
2022-10-21T06:57:16.510Z,1003.14
2022-10-21T06:58:16.460Z,1003.16
2022-10-21T06:59:16.456Z,1003.20
2022-10-21T07:00:16.510Z,1003.21
2022-10-21T07:01:27.890Z,1003.24
2022-10-21T07:02:16.459Z,1003.31
2022-10-21T07:03:16.443Z,1003.37
2022-10-21T07:04:16.449Z,1003.37
2022-10-21T07:05:16.455Z,1003.38
2022-10-21T07:06:16.446Z,1003.37
2022-10-21T07:07:16.445Z,1003.40
2022-10-21T07:08:16.436Z,1003.40
2022-10-21T07:09:16.558Z,1003.42
2022-10-21T07:10:16.439Z,1003.46
2022-10-21T07:11:16.437Z,1003.50
2022-10-21T07:12:16.441Z,1003.53
2022-10-21T07:13:16.434Z,1003.58
2022-10-21T07:14:16.446Z,1003.61
2022-10-21T07:15:16.440Z,1003.67
2022-10-21T07:16:16.429Z,1003.67
2022-10-21T07:17:16.432Z,1003.67
2022-10-21T07:18:16.427Z,1003.68
2022-10-21T07:19:16.457Z,1003.68
2022-10-21T07:20:16.425Z,1003.69
2022-10-21T07:21:16.415Z,1003.68
2022-10-21T07:22:16.411Z,1003.66
2022-10-21T07:23:16.420Z,1003.66
2022-10-21T07:24:19.964Z,1003.62
2022-10-21T07:25:16.450Z,1003.63
2022-10-21T07:26:16.409Z,1003.60
2022-10-21T07:27:16.411Z,1003.54
2022-10-21T07:28:16.409Z,1003.58
2022-10-21T07:29:16.408Z,1003.59
2022-10-21T07:30:16.410Z,1003.61
2022-10-21T07:31:16.410Z,1003.69
2022-10-21T07:32:16.400Z,1003.74
2022-10-21T07:33:16.402Z,1003.75
2022-10-21T07:34:20.034Z,1003.81
2022-10-21T07:35:16.391Z,1003.81
2022-10-21T07:36:16.394Z,1003.83
2022-10-21T07:37:16.398Z,1003.81
2022-10-21T07:38:18.803Z,1003.74
2022-10-21T07:39:16.399Z,1003.74
2022-10-21T07:40:16.384Z,1003.78
2022-10-21T07:41:16.409Z,1003.76
2022-10-21T07:42:16.383Z,1003.80
2022-10-21T07:43:16.391Z,1003.78
2022-10-21T07:44:16.482Z,1003.77
2022-10-21T07:45:16.382Z,1003.71
2022-10-21T07:46:16.380Z,1003.71
2022-10-21T07:47:16.376Z,1003.67
2022-10-21T07:48:16.371Z,1003.65
2022-10-21T07:49:16.380Z,1003.68
2022-10-21T07:50:16.377Z,1003.66
2022-10-21T07:51:16.370Z,1003.70
2022-10-21T07:52:16.373Z,1003.74
2022-10-21T07:53:16.511Z,1003.78
2022-10-21T07:54:16.369Z,1003.84
2022-10-21T07:55:16.370Z,1003.84
2022-10-21T07:56:16.377Z,1003.84
2022-10-21T07:57:16.379Z,1003.87
2022-10-21T07:58:16.356Z,1003.90
2022-10-21T07:59:16.358Z,1003.92
2022-10-21T08:00:16.363Z,1003.95
2022-10-21T08:01:16.421Z,1003.98
2022-10-21T08:02:16.354Z,1003.97
2022-10-21T08:03:16.353Z,1004.00
2022-10-21T08:04:16.355Z,1004.03
2022-10-21T08:05:16.352Z,1004.01
2022-10-21T08:06:16.347Z,1004.02
2022-10-21T08:07:16.350Z,1003.98
2022-10-21T08:08:16.344Z,1004.01
2022-10-21T08:09:16.393Z,1003.98
2022-10-21T08:10:16.338Z,1003.99
2022-10-21T08:11:16.333Z,1004.01
2022-10-21T08:12:16.329Z,1004.00
2022-10-21T08:13:16.357Z,1004.04
2022-10-21T08:14:16.327Z,1004.08
2022-10-21T08:15:16.331Z,1004.10
2022-10-21T08:16:16.332Z,1004.08
2022-10-21T08:17:16.338Z,1004.12
2022-10-21T08:18:16.322Z,1004.12
2022-10-21T08:19:16.318Z,1004.12
2022-10-21T08:20:16.324Z,1004.14
2022-10-21T08:21:16.325Z,1004.13
2022-10-21T08:22:16.323Z,1004.17
2022-10-21T08:23:16.324Z,1004.16
2022-10-21T08:24:16.329Z,1004.16
2022-10-21T08:25:16.312Z,1004.19
2022-10-21T08:26:16.316Z,1004.18
2022-10-21T08:27:16.304Z,1004.23
2022-10-21T08:28:16.308Z,1004.18
2022-10-21T08:29:16.336Z,1004.19
2022-10-21T08:30:16.305Z,1004.20
2022-10-21T08:31:16.329Z,1004.23
2022-10-21T08:32:16.298Z,1004.24
2022-10-21T08:33:16.306Z,1004.25
2022-10-21T08:34:16.312Z,1004.25
2022-10-21T08:35:16.299Z,1004.26
2022-10-21T08:36:16.296Z,1004.27
2022-10-21T08:37:16.287Z,1004.32
2022-10-21T08:38:16.285Z,1004.30
2022-10-21T08:39:16.290Z,1004.33
2022-10-21T08:40:16.288Z,1004.37
2022-10-21T08:41:16.293Z,1004.37
2022-10-21T08:42:16.288Z,1004.32
2022-10-21T08:43:16.282Z,1004.34
2022-10-21T08:44:16.277Z,1004.33
2022-10-21T08:45:16.297Z,1004.30
2022-10-21T08:46:16.278Z,1004.35
2022-10-21T08:47:16.296Z,1004.33
2022-10-21T08:48:16.274Z,1004.35
2022-10-21T08:49:16.293Z,1004.31
2022-10-21T08:50:16.287Z,1004.37
2022-10-21T08:51:16.272Z,1004.34
2022-10-21T08:52:16.265Z,1004.36
2022-10-21T08:53:16.268Z,1004.32
2022-10-21T08:54:16.266Z,1004.35
2022-10-21T08:55:16.263Z,1004.31
2022-10-21T08:56:19.824Z,1004.33
2022-10-21T08:57:16.267Z,1004.31
2022-10-21T08:58:16.550Z,1004.34
2022-10-21T08:59:16.260Z,1004.32
2022-10-21T09:00:16.254Z,1004.34
2022-10-21T09:01:16.273Z,1004.32
2022-10-21T09:02:16.246Z,1004.36
2022-10-21T09:03:16.343Z,1004.38
2022-10-21T09:04:16.245Z,1004.36
2022-10-21T09:05:16.316Z,1004.37
2022-10-21T09:06:16.242Z,1004.41
2022-10-21T09:07:16.249Z,1004.40
2022-10-21T09:08:16.239Z,1004.40
2022-10-21T09:09:16.304Z,1004.40
2022-10-21T09:10:16.252Z,1004.43
2022-10-21T09:11:16.242Z,1004.45
2022-10-21T09:12:16.231Z,1004.36
2022-10-21T09:13:16.226Z,1004.42
2022-10-21T09:14:16.232Z,1004.36
2022-10-21T09:15:16.229Z,1004.33
2022-10-21T09:16:16.220Z,1004.34
2022-10-21T09:17:16.244Z,1004.32
2022-10-21T09:18:16.218Z,1004.30
2022-10-21T09:19:16.222Z,1004.28
2022-10-21T09:20:16.241Z,1004.20
2022-10-21T09:21:16.223Z,1004.23
2022-10-21T09:22:34.357Z,1004.19
2022-10-21T09:23:16.217Z,1004.15
2022-10-21T09:24:16.211Z,1004.06
2022-10-21T09:25:16.210Z,1004.02
2022-10-21T09:26:16.212Z,1004.03
2022-10-21T09:27:22.700Z,1004.00
2022-10-21T09:28:16.205Z,1003.94
2022-10-21T09:29:16.196Z,1003.89
2022-10-21T09:30:16.332Z,1003.86
2022-10-21T09:31:16.206Z,1003.82
2022-10-21T09:32:16.303Z,1003.82
2022-10-21T09:33:16.316Z,1003.80
2022-10-21T09:34:16.196Z,1003.79
2022-10-21T09:35:16.190Z,1003.73
2022-10-21T09:36:16.188Z,1003.70
2022-10-21T09:37:16.199Z,1003.71
2022-10-21T09:38:16.193Z,1003.71
2022-10-21T09:39:16.191Z,1003.69
2022-10-21T09:40:16.271Z,1003.68
2022-10-21T09:41:16.206Z,1003.68
2022-10-21T09:42:35.335Z,1003.62
2022-10-21T09:43:16.176Z,1003.61
2022-10-21T09:44:16.189Z,1003.54
2022-10-21T09:45:16.185Z,1003.54
2022-10-21T09:46:16.169Z,1003.52
2022-10-21T09:47:16.174Z,1003.47
2022-10-21T09:48:16.169Z,1003.48
2022-10-21T09:49:47.296Z,1003.51
2022-10-21T09:50:16.281Z,1003.57
2022-10-21T09:51:16.167Z,1003.57
2022-10-21T09:52:16.158Z,1003.58
2022-10-21T09:53:16.156Z,1003.57
2022-10-21T09:54:16.157Z,1003.58
2022-10-21T09:55:18.784Z,1003.56
2022-10-21T09:56:20.319Z,1003.57
2022-10-21T09:57:16.146Z,1003.59
2022-10-21T09:58:19.587Z,1003.65
2022-10-21T09:59:16.777Z,1003.76
2022-10-21T10:00:16.300Z,1003.83
2022-10-21T10:01:16.147Z,1003.92
2022-10-21T10:02:16.249Z,1003.94
2022-10-21T10:03:18.976Z,1003.98
2022-10-21T10:04:16.139Z,1004.01
2022-10-21T10:05:16.168Z,1004.00
2022-10-21T10:06:16.140Z,1004.03
2022-10-21T10:07:16.130Z,1004.02
2022-10-21T10:08:16.144Z,1004.05
2022-10-21T10:09:16.139Z,1004.10
2022-10-21T10:10:16.130Z,1004.21
2022-10-21T10:11:16.129Z,1004.29
2022-10-21T10:12:16.129Z,1004.48
2022-10-21T10:13:16.143Z,1004.56
2022-10-21T10:14:16.134Z,1004.64
2022-10-21T10:15:16.115Z,1004.69
2022-10-21T10:16:16.114Z,1004.79
2022-10-21T10:17:16.114Z,1004.72
2022-10-21T10:18:16.120Z,1004.75
2022-10-21T10:19:16.112Z,1004.72
2022-10-21T10:20:16.114Z,1004.71
2022-10-21T10:21:16.153Z,1004.64
2022-10-21T10:22:16.105Z,1004.63
2022-10-21T10:23:16.107Z,1004.63
2022-10-21T10:24:16.111Z,1004.68
2022-10-21T10:25:16.109Z,1004.71
2022-10-21T10:26:16.118Z,1004.81
2022-10-21T10:27:16.107Z,1004.85
2022-10-21T10:28:16.101Z,1004.83
2022-10-21T10:29:16.095Z,1004.83
2022-10-21T10:30:16.107Z,1004.87
2022-10-21T10:31:16.087Z,1004.87
2022-10-21T10:32:16.100Z,1004.82
2022-10-21T10:33:16.085Z,1004.81
2022-10-21T10:34:16.092Z,1004.79
2022-10-21T10:35:16.087Z,1004.77
2022-10-21T10:36:16.087Z,1004.79
2022-10-21T10:37:16.197Z,1004.79
2022-10-21T10:38:16.085Z,1004.84
2022-10-21T10:39:16.076Z,1004.86
2022-10-21T10:40:16.082Z,1004.90
2022-10-21T10:41:16.078Z,1004.92
2022-10-21T10:42:16.072Z,1004.90
2022-10-21T10:43:16.067Z,1004.92
2022-10-21T10:44:16.065Z,1004.92
2022-10-21T10:45:16.066Z,1004.90
2022-10-21T10:46:16.077Z,1004.94
2022-10-21T10:47:16.065Z,1004.92
2022-10-21T10:48:16.069Z,1004.93
2022-10-21T10:49:16.064Z,1004.92
2022-10-21T10:50:16.077Z,1004.91
2022-10-21T10:51:16.061Z,1004.90
2022-10-21T10:52:16.073Z,1004.90
2022-10-21T10:53:16.601Z,1004.88
2022-10-21T10:54:16.057Z,1004.88
2022-10-21T10:55:16.046Z,1004.90
2022-10-21T10:56:16.047Z,1004.93
2022-10-21T10:57:16.042Z,1004.91
2022-10-21T10:58:18.251Z,1004.97
2022-10-21T10:59:16.060Z,1005.00
2022-10-21T11:00:16.050Z,1005.02
2022-10-21T11:01:16.138Z,1005.06
2022-10-21T11:02:16.047Z,1005.04
2022-10-21T11:03:16.039Z,1005.00
2022-10-21T11:04:16.046Z,1005.00
2022-10-21T11:05:16.039Z,1005.00
2022-10-21T11:06:16.038Z,1004.97
2022-10-21T11:07:16.030Z,1004.98
2022-10-21T11:08:16.025Z,1004.99
2022-10-21T11:09:16.215Z,1004.92
2022-10-21T11:10:16.031Z,1004.91
2022-10-21T11:11:16.028Z,1004.90
2022-10-21T11:12:16.027Z,1004.94
2022-10-21T11:13:16.025Z,1004.92
2022-10-21T11:14:18.936Z,1004.93
2022-10-21T11:15:16.030Z,1004.88
2022-10-21T11:16:16.024Z,1004.85
2022-10-21T11:17:16.013Z,1004.85
2022-10-21T11:18:24.600Z,1004.87
2022-10-21T11:19:16.008Z,1004.85
2022-10-21T11:20:16.013Z,1004.84
2022-10-21T11:21:16.008Z,1004.88
2022-10-21T11:22:16.006Z,1004.85
2022-10-21T11:23:16.002Z,1004.78
2022-10-21T11:24:16.005Z,1004.78
2022-10-21T11:25:16.109Z,1004.78
2022-10-21T11:26:16.003Z,1004.76
2022-10-21T11:27:19.030Z,1004.74
2022-10-21T11:28:16.007Z,1004.74
2022-10-21T11:29:15.997Z,1004.69
2022-10-21T11:30:16.008Z,1004.65
2022-10-21T11:31:15.985Z,1004.62
2022-10-21T11:32:16.002Z,1004.59
2022-10-21T11:33:15.981Z,1004.60
2022-10-21T11:34:16.007Z,1004.62
2022-10-21T11:35:15.992Z,1004.56
2022-10-21T11:36:17.004Z,1004.54
2022-10-21T11:37:15.976Z,1004.53
2022-10-21T11:38:16.005Z,1004.55
2022-10-21T11:39:20.575Z,1004.56
2022-10-21T11:40:16.001Z,1004.55
2022-10-21T11:42:15.975Z,1004.58
2022-10-21T11:43:15.969Z,1004.57
2022-10-21T11:44:15.963Z,1004.56
2022-10-21T11:45:15.965Z,1004.58
2022-10-21T11:46:15.966Z,1004.60
2022-10-21T11:47:15.958Z,1004.56
2022-10-21T11:48:15.964Z,1004.54
2022-10-21T11:49:15.963Z,1004.53
2022-10-21T11:50:16.062Z,1004.50
2022-10-21T11:51:16.810Z,1004.49
2022-10-21T11:52:15.962Z,1004.49
2022-10-21T11:53:15.944Z,1004.46
2022-10-21T11:54:15.949Z,1004.48
2022-10-21T11:55:15.955Z,1004.45
2022-10-21T11:56:15.943Z,1004.47
2022-10-21T11:57:16.077Z,1004.50
2022-10-21T11:58:15.949Z,1004.50
2022-10-21T11:59:16.001Z,1004.49
2022-10-21T12:00:15.939Z,1004.50
2022-10-21T12:01:15.938Z,1004.53
2022-10-21T12:02:16.021Z,1004.51
2022-10-21T12:03:15.934Z,1004.51
2022-10-21T12:04:15.940Z,1004.52
2022-10-21T12:05:15.935Z,1004.52
2022-10-21T12:06:15.939Z,1004.51
2022-10-21T12:07:15.930Z,1004.49
2022-10-21T12:08:16.030Z,1004.51
2022-10-21T12:09:15.927Z,1004.51